sensor_id;sensor_type;location;lat;lon;timestamp;P1;durP1;ratioP1;P2;durP2;ratioP2
46036;SDS011;31769;49.304;8.428;2023-11-22T00:00:40;6.88;;;4.43;;
46036;SDS011;31769;49.304;8.428;2023-11-22T00:03:41;4.07;;;3.67;;
46036;SDS011;31769;49.304;8.428;2023-11-22T00:06:42;4.75;;;3.72;;
46036;SDS011;31769;49.304;8.428;2023-11-22T00:09:42;3.92;;;3.58;;
46036;SDS011;31769;49.304;8.428;2023-11-22T00:12:43;5.35;;;3.97;;
46036;SDS011;31769;49.304;8.428;2023-11-22T00:15:44;5.28;;;3.78;;
46036;SDS011;31769;49.304;8.428;2023-11-22T00:18:44;5.45;;;3.53;;
46036;SDS011;31769;49.304;8.428;2023-11-22T00:21:45;4.95;;;3.60;;
46036;SDS011;31769;49.304;8.428;2023-11-22T00:24:46;4.60;;;3.80;;
46036;SDS011;31769;49.304;8.428;2023-11-22T00:27:50;5.10;;;3.88;;
46036;SDS011;31769;49.304;8.428;2023-11-22T00:30:51;6.68;;;4.28;;
46036;SDS011;31769;49.304;8.428;2023-11-22T00:33:51;8.23;;;5.35;;
46036;SDS011;31769;49.304;8.428;2023-11-22T00:36:52;5.47;;;4.32;;
46036;SDS011;31769;49.304;8.428;2023-11-22T00:39:53;6.95;;;3.97;;
46036;SDS011;31769;49.304;8.428;2023-11-22T00:42:53;8.07;;;4.85;;
46036;SDS011;31769;49.304;8.428;2023-11-22T00:45:54;6.38;;;4.65;;
46036;SDS011;31769;49.304;8.428;2023-11-22T00:48:57;4.93;;;4.20;;
46036;SDS011;31769;49.304;8.428;2023-11-22T00:51:58;4.90;;;3.70;;
46036;SDS011;31769;49.304;8.428;2023-11-22T00:54:58;4.05;;;3.65;;
46036;SDS011;31769;49.304;8.428;2023-11-22T00:58:00;5.18;;;3.60;;
46036;SDS011;31769;49.304;8.428;2023-11-22T01:01:04;5.13;;;3.80;;
46036;SDS011;31769;49.304;8.428;2023-11-22T01:04:05;3.70;;;3.40;;
46036;SDS011;31769;49.304;8.428;2023-11-22T01:07:08;4.82;;;4.32;;
46036;SDS011;31769;49.304;8.428;2023-11-22T01:10:09;4.68;;;3.90;;
46036;SDS011;31769;49.304;8.428;2023-11-22T01:13:10;4.70;;;4.00;;
46036;SDS011;31769;49.304;8.428;2023-11-22T01:16:11;4.43;;;3.83;;
46036;SDS011;31769;49.304;8.428;2023-11-22T01:19:13;4.75;;;3.97;;
46036;SDS011;31769;49.304;8.428;2023-11-22T01:22:13;5.63;;;3.75;;
46036;SDS011;31769;49.304;8.428;2023-11-22T01:25:14;7.47;;;4.38;;
46036;SDS011;31769;49.304;8.428;2023-11-22T01:28:15;6.05;;;4.13;;
46036;SDS011;31769;49.304;8.428;2023-11-22T01:31:17;5.15;;;3.50;;
46036;SDS011;31769;49.304;8.428;2023-11-22T01:34:21;5.18;;;3.67;;
46036;SDS011;31769;49.304;8.428;2023-11-22T01:37:21;4.72;;;3.65;;
46036;SDS011;31769;49.304;8.428;2023-11-22T01:40:22;4.45;;;4.05;;
46036;SDS011;31769;49.304;8.428;2023-11-22T01:43:23;4.90;;;4.28;;
46036;SDS011;31769;49.304;8.428;2023-11-22T01:46:27;5.32;;;4.00;;
46036;SDS011;31769;49.304;8.428;2023-11-22T01:49:27;4.18;;;3.78;;
46036;SDS011;31769;49.304;8.428;2023-11-22T01:52:29;4.72;;;3.92;;
46036;SDS011;31769;49.304;8.428;2023-11-22T01:55:30;6.28;;;4.13;;
46036;SDS011;31769;49.304;8.428;2023-11-22T01:58:31;4.05;;;3.72;;
46036;SDS011;31769;49.304;8.428;2023-11-22T02:01:32;7.13;;;3.47;;
46036;SDS011;31769;49.304;8.428;2023-11-22T02:04:33;3.95;;;3.53;;
46036;SDS011;31769;49.304;8.428;2023-11-22T02:07:33;4.00;;;3.60;;
46036;SDS011;31769;49.304;8.428;2023-11-22T02:10:34;4.15;;;3.75;;
46036;SDS011;31769;49.304;8.428;2023-11-22T02:13:36;5.78;;;3.92;;
46036;SDS011;31769;49.304;8.428;2023-11-22T02:16:37;5.97;;;4.90;;
46036;SDS011;31769;49.304;8.428;2023-11-22T02:19:40;10.13;;;5.75;;
46036;SDS011;31769;49.304;8.428;2023-11-22T02:22:44;8.65;;;5.20;;
46036;SDS011;31769;49.304;8.428;2023-11-22T02:25:47;8.45;;;5.63;;
46036;SDS011;31769;49.304;8.428;2023-11-22T02:28:48;6.63;;;5.00;;
46036;SDS011;31769;49.304;8.428;2023-11-22T02:31:48;6.28;;;5.22;;
46036;SDS011;31769;49.304;8.428;2023-11-22T02:34:49;7.45;;;5.30;;
46036;SDS011;31769;49.304;8.428;2023-11-22T02:37:51;6.13;;;4.47;;
46036;SDS011;31769;49.304;8.428;2023-11-22T02:40:51;6.72;;;4.50;;
46036;SDS011;31769;49.304;8.428;2023-11-22T02:43:52;6.75;;;4.47;;
46036;SDS011;31769;49.304;8.428;2023-11-22T02:46:53;5.30;;;4.25;;
46036;SDS011;31769;49.304;8.428;2023-11-22T02:49:54;4.57;;;3.85;;
46036;SDS011;31769;49.304;8.428;2023-11-22T02:52:55;5.40;;;4.20;;
46036;SDS011;31769;49.304;8.428;2023-11-22T02:55:59;4.60;;;3.50;;
46036;SDS011;31769;49.304;8.428;2023-11-22T02:59:00;3.90;;;3.40;;
46036;SDS011;31769;49.304;8.428;2023-11-22T03:02:01;5.53;;;3.60;;
46036;SDS011;31769;49.304;8.428;2023-11-22T03:05:01;4.60;;;2.88;;
46036;SDS011;31769;49.304;8.428;2023-11-22T03:08:04;3.55;;;2.65;;
46036;SDS011;31769;49.304;8.428;2023-11-22T03:11:07;4.28;;;3.00;;
46036;SDS011;31769;49.304;8.428;2023-11-22T03:14:08;4.70;;;2.30;;
46036;SDS011;31769;49.304;8.428;2023-11-22T03:17:09;5.60;;;2.45;;
46036;SDS011;31769;49.304;8.428;2023-11-22T03:20:09;5.15;;;2.92;;
46036;SDS011;31769;49.304;8.428;2023-11-22T03:23:11;4.03;;;2.50;;
46036;SDS011;31769;49.304;8.428;2023-11-22T03:26:12;8.15;;;3.22;;
46036;SDS011;31769;49.304;8.428;2023-11-22T03:29:14;4.28;;;2.88;;
46036;SDS011;31769;49.304;8.428;2023-11-22T03:32:18;4.07;;;3.28;;
46036;SDS011;31769;49.304;8.428;2023-11-22T03:35:19;5.22;;;3.40;;
46036;SDS011;31769;49.304;8.428;2023-11-22T03:38:19;5.78;;;3.40;;
46036;SDS011;31769;49.304;8.428;2023-11-22T03:41:21;4.40;;;3.65;;
46036;SDS011;31769;49.304;8.428;2023-11-22T03:44:21;5.45;;;3.50;;
46036;SDS011;31769;49.304;8.428;2023-11-22T03:47:23;6.25;;;3.70;;
46036;SDS011;31769;49.304;8.428;2023-11-22T03:50:23;7.72;;;4.80;;
46036;SDS011;31769;49.304;8.428;2023-11-22T03:53:24;6.97;;;4.15;;
46036;SDS011;31769;49.304;8.428;2023-11-22T03:56:26;7.43;;;4.20;;
46036;SDS011;31769;49.304;8.428;2023-11-22T03:59:26;10.07;;;5.10;;
46036;SDS011;31769;49.304;8.428;2023-11-22T04:02:27;9.70;;;5.57;;
46036;SDS011;31769;49.304;8.428;2023-11-22T04:05:29;9.55;;;5.63;;
46036;SDS011;31769;49.304;8.428;2023-11-22T04:08:30;10.18;;;4.88;;
46036;SDS011;31769;49.304;8.428;2023-11-22T04:11:30;9.18;;;4.95;;
46036;SDS011;31769;49.304;8.428;2023-11-22T04:14:31;11.43;;;5.35;;
46036;SDS011;31769;49.304;8.428;2023-11-22T04:17:32;25.40;;;5.72;;
46036;SDS011;31769;49.304;8.428;2023-11-22T04:20:32;8.02;;;4.65;;
46036;SDS011;31769;49.304;8.428;2023-11-22T04:23:33;12.77;;;6.07;;
46036;SDS011;31769;49.304;8.428;2023-11-22T04:26:34;8.32;;;5.13;;
46036;SDS011;31769;49.304;8.428;2023-11-22T04:29:35;9.85;;;5.63;;
46036;SDS011;31769;49.304;8.428;2023-11-22T04:32:35;10.40;;;6.20;;
46036;SDS011;31769;49.304;8.428;2023-11-22T04:35:36;9.25;;;5.88;;
46036;SDS011;31769;49.304;8.428;2023-11-22T04:38:38;10.70;;;6.60;;
46036;SDS011;31769;49.304;8.428;2023-11-22T04:41:39;11.43;;;7.38;;
46036;SDS011;31769;49.304;8.428;2023-11-22T04:44:40;13.88;;;7.68;;
46036;SDS011;31769;49.304;8.428;2023-11-22T04:47:40;13.88;;;7.30;;
46036;SDS011;31769;49.304;8.428;2023-11-22T04:50:41;11.38;;;7.35;;
46036;SDS011;31769;49.304;8.428;2023-11-22T04:53:42;11.32;;;7.43;;
46036;SDS011;31769;49.304;8.428;2023-11-22T04:56:44;9.27;;;6.43;;
46036;SDS011;31769;49.304;8.428;2023-11-22T04:59:45;10.60;;;6.35;;
46036;SDS011;31769;49.304;8.428;2023-11-22T05:02:46;11.73;;;6.40;;
46036;SDS011;31769;49.304;8.428;2023-11-22T05:05:46;8.35;;;5.75;;
46036;SDS011;31769;49.304;8.428;2023-11-22T05:08:47;9.63;;;5.93;;
46036;SDS011;31769;49.304;8.428;2023-11-22T05:11:48;7.15;;;5.20;;
46036;SDS011;31769;49.304;8.428;2023-11-22T05:14:49;8.70;;;5.32;;
46036;SDS011;31769;49.304;8.428;2023-11-22T05:17:50;6.65;;;3.85;;
46036;SDS011;31769;49.304;8.428;2023-11-22T05:20:51;8.27;;;4.22;;
46036;SDS011;31769;49.304;8.428;2023-11-22T05:23:51;4.95;;;3.40;;
46036;SDS011;31769;49.304;8.428;2023-11-22T05:26:54;4.68;;;3.33;;
46036;SDS011;31769;49.304;8.428;2023-11-22T05:29:55;8.48;;;4.15;;
46036;SDS011;31769;49.304;8.428;2023-11-22T05:32:57;5.78;;;3.58;;
46036;SDS011;31769;49.304;8.428;2023-11-22T05:35:57;4.00;;;2.83;;
46036;SDS011;31769;49.304;8.428;2023-11-22T05:38:58;4.63;;;2.63;;
46036;SDS011;31769;49.304;8.428;2023-11-22T05:41:59;9.20;;;4.55;;
46036;SDS011;31769;49.304;8.428;2023-11-22T05:45:01;6.63;;;3.58;;
46036;SDS011;31769;49.304;8.428;2023-11-22T05:48:02;3.90;;;2.85;;
46036;SDS011;31769;49.304;8.428;2023-11-22T05:51:02;4.80;;;2.92;;
46036;SDS011;31769;49.304;8.428;2023-11-22T05:54:03;4.38;;;2.85;;
46036;SDS011;31769;49.304;8.428;2023-11-22T05:57:04;7.28;;;2.55;;
46036;SDS011;31769;49.304;8.428;2023-11-22T06:00:05;3.20;;;2.88;;
46036;SDS011;31769;49.304;8.428;2023-11-22T06:03:07;4.68;;;2.58;;
46036;SDS011;31769;49.304;8.428;2023-11-22T06:06:08;3.92;;;2.88;;
46036;SDS011;31769;49.304;8.428;2023-11-22T06:09:09;4.38;;;2.55;;
46036;SDS011;31769;49.304;8.428;2023-11-22T06:12:14;4.10;;;2.85;;
46036;SDS011;31769;49.304;8.428;2023-11-22T06:15:15;3.40;;;2.42;;
46036;SDS011;31769;49.304;8.428;2023-11-22T06:18:15;4.65;;;3.00;;
46036;SDS011;31769;49.304;8.428;2023-11-22T06:21:16;3.90;;;2.67;;
46036;SDS011;31769;49.304;8.428;2023-11-22T06:24:17;5.07;;;3.10;;
46036;SDS011;31769;49.304;8.428;2023-11-22T06:27:17;5.55;;;3.63;;
46036;SDS011;31769;49.304;8.428;2023-11-22T06:30:18;6.47;;;3.35;;
46036;SDS011;31769;49.304;8.428;2023-11-22T06:33:19;4.93;;;3.30;;
46036;SDS011;31769;49.304;8.428;2023-11-22T06:36:20;4.60;;;3.17;;
46036;SDS011;31769;49.304;8.428;2023-11-22T06:39:21;5.28;;;3.35;;
46036;SDS011;31769;49.304;8.428;2023-11-22T06:42:22;7.07;;;3.95;;
46036;SDS011;31769;49.304;8.428;2023-11-22T06:45:23;4.35;;;3.60;;
46036;SDS011;31769;49.304;8.428;2023-11-22T06:48:24;5.60;;;4.07;;
46036;SDS011;31769;49.304;8.428;2023-11-22T06:51:24;7.53;;;4.07;;
46036;SDS011;31769;49.304;8.428;2023-11-22T06:54:26;10.07;;;3.92;;
46036;SDS011;31769;49.304;8.428;2023-11-22T06:57:27;7.05;;;4.22;;
46036;SDS011;31769;49.304;8.428;2023-11-22T07:00:29;6.97;;;3.80;;
46036;SDS011;31769;49.304;8.428;2023-11-22T07:03:30;5.55;;;3.83;;
46036;SDS011;31769;49.304;8.428;2023-11-22T07:06:31;8.38;;;4.55;;
46036;SDS011;31769;49.304;8.428;2023-11-22T07:09:32;5.65;;;4.45;;
46036;SDS011;31769;49.304;8.428;2023-11-22T07:12:33;7.00;;;4.22;;
46036;SDS011;31769;49.304;8.428;2023-11-22T07:15:37;5.55;;;4.47;;
46036;SDS011;31769;49.304;8.428;2023-11-22T07:18:37;15.13;;;6.22;;
46036;SDS011;31769;49.304;8.428;2023-11-22T07:21:38;9.15;;;5.32;;
46036;SDS011;31769;49.304;8.428;2023-11-22T07:24:40;10.32;;;5.65;;
46036;SDS011;31769;49.304;8.428;2023-11-22T07:27:46;6.53;;;3.95;;
46036;SDS011;31769;49.304;8.428;2023-11-22T07:30:47;6.20;;;3.55;;
46036;SDS011;31769;49.304;8.428;2023-11-22T07:33:52;7.47;;;4.40;;
46036;SDS011;31769;49.304;8.428;2023-11-22T07:36:52;8.85;;;4.20;;
46036;SDS011;31769;49.304;8.428;2023-11-22T07:39:53;5.88;;;4.03;;
46036;SDS011;31769;49.304;8.428;2023-11-22T07:42:54;7.28;;;3.92;;
46036;SDS011;31769;49.304;8.428;2023-11-22T07:45:55;7.13;;;4.30;;
46036;SDS011;31769;49.304;8.428;2023-11-22T07:48:55;7.43;;;4.97;;
46036;SDS011;31769;49.304;8.428;2023-11-22T07:51:56;6.82;;;4.55;;
46036;SDS011;31769;49.304;8.428;2023-11-22T07:54:57;5.60;;;4.18;;
46036;SDS011;31769;49.304;8.428;2023-11-22T07:57:57;7.75;;;4.43;;
46036;SDS011;31769;49.304;8.428;2023-11-22T08:00:58;7.88;;;4.47;;
46036;SDS011;31769;49.304;8.428;2023-11-22T08:04:00;5.82;;;4.57;;
46036;SDS011;31769;49.304;8.428;2023-11-22T08:07:00;5.90;;;4.47;;
46036;SDS011;31769;49.304;8.428;2023-11-22T08:10:01;6.30;;;4.80;;
46036;SDS011;31769;49.304;8.428;2023-11-22T08:13:09;7.07;;;3.95;;
46036;SDS011;31769;49.304;8.428;2023-11-22T08:16:10;7.10;;;4.22;;
46036;SDS011;31769;49.304;8.428;2023-11-22T08:19:13;7.70;;;4.47;;
46036;SDS011;31769;49.304;8.428;2023-11-22T08:22:14;5.82;;;4.40;;
46036;SDS011;31769;49.304;8.428;2023-11-22T08:25:15;8.38;;;5.07;;
46036;SDS011;31769;49.304;8.428;2023-11-22T08:28:15;7.57;;;4.32;;
46036;SDS011;31769;49.304;8.428;2023-11-22T08:31:16;7.13;;;5.05;;
46036;SDS011;31769;49.304;8.428;2023-11-22T08:34:17;7.70;;;5.35;;
46036;SDS011;31769;49.304;8.428;2023-11-22T08:37:18;7.88;;;4.53;;
46036;SDS011;31769;49.304;8.428;2023-11-22T08:40:19;6.53;;;4.40;;
46036;SDS011;31769;49.304;8.428;2023-11-22T08:43:20;5.50;;;4.15;;
46036;SDS011;31769;49.304;8.428;2023-11-22T08:46:23;5.63;;;3.70;;
46036;SDS011;31769;49.304;8.428;2023-11-22T08:49:24;7.97;;;4.50;;
46036;SDS011;31769;49.304;8.428;2023-11-22T08:52:25;5.43;;;4.35;;
46036;SDS011;31769;49.304;8.428;2023-11-22T08:55:26;6.72;;;4.75;;
46036;SDS011;31769;49.304;8.428;2023-11-22T08:58:26;6.43;;;4.18;;
46036;SDS011;31769;49.304;8.428;2023-11-22T09:01:27;5.97;;;4.38;;
46036;SDS011;31769;49.304;8.428;2023-11-22T09:04:28;4.40;;;3.70;;
46036;SDS011;31769;49.304;8.428;2023-11-22T09:07:31;5.05;;;4.22;;
46036;SDS011;31769;49.304;8.428;2023-11-22T09:10:33;4.68;;;4.00;;
46036;SDS011;31769;49.304;8.428;2023-11-22T09:13:35;5.28;;;3.70;;
46036;SDS011;31769;49.304;8.428;2023-11-22T09:16:36;6.40;;;4.60;;
46036;SDS011;31769;49.304;8.428;2023-11-22T09:19:38;7.40;;;4.45;;
46036;SDS011;31769;49.304;8.428;2023-11-22T09:22:42;6.47;;;4.25;;
46036;SDS011;31769;49.304;8.428;2023-11-22T09:25:47;4.82;;;3.97;;
46036;SDS011;31769;49.304;8.428;2023-11-22T09:28:49;5.75;;;4.28;;
46036;SDS011;31769;49.304;8.428;2023-11-22T09:31:50;5.18;;;3.90;;
46036;SDS011;31769;49.304;8.428;2023-11-22T09:34:52;4.35;;;3.65;;
46036;SDS011;31769;49.304;8.428;2023-11-22T09:38:04;5.28;;;4.20;;
46036;SDS011;31769;49.304;8.428;2023-11-22T09:41:12;4.10;;;3.70;;
46036;SDS011;31769;49.304;8.428;2023-11-22T09:44:14;6.95;;;4.13;;
46036;SDS011;31769;49.304;8.428;2023-11-22T09:47:16;6.13;;;3.95;;
46036;SDS011;31769;49.304;8.428;2023-11-22T09:50:25;5.18;;;3.78;;
46036;SDS011;31769;49.304;8.428;2023-11-22T09:53:36;6.65;;;4.45;;
46036;SDS011;31769;49.304;8.428;2023-11-22T09:56:40;4.85;;;4.03;;
46036;SDS011;31769;49.304;8.428;2023-11-22T09:59:42;4.40;;;3.78;;
46036;SDS011;31769;49.304;8.428;2023-11-22T10:02:42;5.00;;;4.18;;
46036;SDS011;31769;49.304;8.428;2023-11-22T10:05:43;4.63;;;3.92;;
46036;SDS011;31769;49.304;8.428;2023-11-22T10:08:44;4.32;;;3.90;;
46036;SDS011;31769;49.304;8.428;2023-11-22T10:11:47;6.80;;;4.47;;
46036;SDS011;31769;49.304;8.428;2023-11-22T10:14:50;4.93;;;4.40;;
46036;SDS011;31769;49.304;8.428;2023-11-22T10:17:55;5.68;;;4.68;;
46036;SDS011;31769;49.304;8.428;2023-11-22T10:20:57;7.10;;;4.33;;
46036;SDS011;31769;49.304;8.428;2023-11-22T10:24:03;7.67;;;4.77;;
46036;SDS011;31769;49.304;8.428;2023-11-22T10:27:04;6.15;;;4.22;;
46036;SDS011;31769;49.304;8.428;2023-11-22T10:30:07;5.97;;;4.82;;
46036;SDS011;31769;49.304;8.428;2023-11-22T10:33:10;8.93;;;6.25;;
46036;SDS011;31769;49.304;8.428;2023-11-22T10:36:14;6.40;;;4.82;;
46036;SDS011;31769;49.304;8.428;2023-11-22T10:39:19;5.80;;;4.40;;
46036;SDS011;31769;49.304;8.428;2023-11-22T10:42:20;5.95;;;4.18;;
46036;SDS011;31769;49.304;8.428;2023-11-22T10:45:24;5.82;;;4.50;;
46036;SDS011;31769;49.304;8.428;2023-11-22T10:48:29;6.93;;;4.20;;
46036;SDS011;31769;49.304;8.428;2023-11-22T10:51:31;5.93;;;5.10;;
46036;SDS011;31769;49.304;8.428;2023-11-22T10:54:33;8.18;;;4.53;;
46036;SDS011;31769;49.304;8.428;2023-11-22T10:57:44;8.18;;;5.03;;
46036;SDS011;31769;49.304;8.428;2023-11-22T11:00:48;7.28;;;4.60;;
46036;SDS011;31769;49.304;8.428;2023-11-22T11:07:12;7.10;;;4.75;;
46036;SDS011;31769;49.304;8.428;2023-11-22T11:10:16;6.43;;;4.50;;
46036;SDS011;31769;49.304;8.428;2023-11-22T11:13:19;4.60;;;4.07;;
46036;SDS011;31769;49.304;8.428;2023-11-22T11:16:20;6.95;;;4.60;;
46036;SDS011;31769;49.304;8.428;2023-11-22T11:19:22;6.80;;;4.32;;
46036;SDS011;31769;49.304;8.428;2023-11-22T11:22:24;6.13;;;4.53;;
46036;SDS011;31769;49.304;8.428;2023-11-22T11:25:24;5.40;;;4.40;;
46036;SDS011;31769;49.304;8.428;2023-11-22T11:28:25;6.75;;;4.88;;
46036;SDS011;31769;49.304;8.428;2023-11-22T11:31:31;5.88;;;4.55;;
46036;SDS011;31769;49.304;8.428;2023-11-22T11:34:45;7.28;;;5.03;;
46036;SDS011;31769;49.304;8.428;2023-11-22T11:37:50;7.60;;;5.00;;
46036;SDS011;31769;49.304;8.428;2023-11-22T11:41:09;5.95;;;4.47;;
46036;SDS011;31769;49.304;8.428;2023-11-22T11:44:11;5.82;;;4.30;;
46036;SDS011;31769;49.304;8.428;2023-11-22T11:47:12;7.72;;;4.85;;
46036;SDS011;31769;49.304;8.428;2023-11-22T11:50:14;6.38;;;4.72;;
46036;SDS011;31769;49.304;8.428;2023-11-22T11:53:18;6.45;;;4.35;;
46036;SDS011;31769;49.304;8.428;2023-11-22T11:56:19;6.65;;;4.65;;
46036;SDS011;31769;49.304;8.428;2023-11-22T11:59:19;6.05;;;4.78;;
46036;SDS011;31769;49.304;8.428;2023-11-22T12:02:21;6.50;;;4.60;;
46036;SDS011;31769;49.304;8.428;2023-11-22T12:05:21;7.20;;;4.50;;
46036;SDS011;31769;49.304;8.428;2023-11-22T12:08:22;7.78;;;5.15;;
46036;SDS011;31769;49.304;8.428;2023-11-22T12:11:23;6.75;;;5.00;;
46036;SDS011;31769;49.304;8.428;2023-11-22T12:14:24;8.55;;;5.03;;
46036;SDS011;31769;49.304;8.428;2023-11-22T12:17:26;6.88;;;4.93;;
46036;SDS011;31769;49.304;8.428;2023-11-22T12:20:27;9.27;;;4.75;;
46036;SDS011;31769;49.304;8.428;2023-11-22T12:23:31;8.20;;;5.00;;
46036;SDS011;31769;49.304;8.428;2023-11-22T12:26:32;7.00;;;5.03;;
46036;SDS011;31769;49.304;8.428;2023-11-22T12:29:35;7.60;;;5.03;;
46036;SDS011;31769;49.304;8.428;2023-11-22T12:32:40;5.03;;;4.57;;
46036;SDS011;31769;49.304;8.428;2023-11-22T12:35:42;5.10;;;4.70;;
46036;SDS011;31769;49.304;8.428;2023-11-22T12:38:44;5.70;;;5.20;;
46036;SDS011;31769;49.304;8.428;2023-11-22T12:41:45;7.07;;;5.63;;
46036;SDS011;31769;49.304;8.428;2023-11-22T12:44:50;6.47;;;5.75;;
46036;SDS011;31769;49.304;8.428;2023-11-22T12:47:55;6.78;;;5.80;;
46036;SDS011;31769;49.304;8.428;2023-11-22T12:51:00;5.60;;;5.10;;
46036;SDS011;31769;49.304;8.428;2023-11-22T12:54:01;7.13;;;5.38;;
46036;SDS011;31769;49.304;8.428;2023-11-22T12:57:01;5.55;;;5.05;;
46036;SDS011;31769;49.304;8.428;2023-11-22T13:00:03;5.30;;;4.80;;
46036;SDS011;31769;49.304;8.428;2023-11-22T13:03:09;6.30;;;5.22;;
46036;SDS011;31769;49.304;8.428;2023-11-22T13:06:11;5.05;;;4.65;;
46036;SDS011;31769;49.304;8.428;2023-11-22T13:09:11;10.05;;;4.85;;
46036;SDS011;31769;49.304;8.428;2023-11-22T13:12:15;30.92;;;5.90;;
46036;SDS011;31769;49.304;8.428;2023-11-22T13:15:15;7.15;;;4.82;;
46036;SDS011;31769;49.304;8.428;2023-11-22T13:18:16;5.82;;;4.70;;
46036;SDS011;31769;49.304;8.428;2023-11-22T13:21:17;6.90;;;5.38;;
46036;SDS011;31769;49.304;8.428;2023-11-22T13:24:18;6.35;;;5.25;;
46036;SDS011;31769;49.304;8.428;2023-11-22T13:27:20;7.20;;;4.90;;
46036;SDS011;31769;49.304;8.428;2023-11-22T13:30:21;6.03;;;4.95;;
46036;SDS011;31769;49.304;8.428;2023-11-22T13:33:25;6.47;;;5.22;;
46036;SDS011;31769;49.304;8.428;2023-11-22T13:36:25;7.00;;;5.30;;
46036;SDS011;31769;49.304;8.428;2023-11-22T13:39:27;6.53;;;4.68;;
46036;SDS011;31769;49.304;8.428;2023-11-22T13:42:32;5.70;;;5.07;;
46036;SDS011;31769;49.304;8.428;2023-11-22T13:45:34;7.40;;;5.15;;
46036;SDS011;31769;49.304;8.428;2023-11-22T13:48:36;8.05;;;5.32;;
46036;SDS011;31769;49.304;8.428;2023-11-22T13:51:37;8.43;;;4.93;;
46036;SDS011;31769;49.304;8.428;2023-11-22T13:54:37;5.20;;;4.38;;
46036;SDS011;31769;49.304;8.428;2023-11-22T13:57:39;4.88;;;4.38;;
46036;SDS011;31769;49.304;8.428;2023-11-22T14:00:40;6.40;;;4.55;;
46036;SDS011;31769;49.304;8.428;2023-11-22T14:03:40;5.15;;;4.35;;
46036;SDS011;31769;49.304;8.428;2023-11-22T14:06:41;6.35;;;4.60;;
46036;SDS011;31769;49.304;8.428;2023-11-22T14:09:42;5.50;;;4.85;;
46036;SDS011;31769;49.304;8.428;2023-11-22T14:12:46;10.55;;;6.20;;
46036;SDS011;31769;49.304;8.428;2023-11-22T14:15:49;8.45;;;6.53;;
46036;SDS011;31769;49.304;8.428;2023-11-22T14:18:51;7.35;;;6.13;;
46036;SDS011;31769;49.304;8.428;2023-11-22T14:21:51;7.00;;;5.25;;
46036;SDS011;31769;49.304;8.428;2023-11-22T14:24:52;7.00;;;5.30;;
46036;SDS011;31769;49.304;8.428;2023-11-22T14:27:53;8.27;;;6.38;;
46036;SDS011;31769;49.304;8.428;2023-11-22T14:30:55;7.78;;;5.18;;
46036;SDS011;31769;49.304;8.428;2023-11-22T14:33:56;8.13;;;4.97;;
46036;SDS011;31769;49.304;8.428;2023-11-22T14:36:57;7.45;;;4.72;;
46036;SDS011;31769;49.304;8.428;2023-11-22T14:39:57;7.07;;;5.18;;
46036;SDS011;31769;49.304;8.428;2023-11-22T14:42:59;6.80;;;5.57;;
46036;SDS011;31769;49.304;8.428;2023-11-22T14:46:00;7.22;;;5.40;;
46036;SDS011;31769;49.304;8.428;2023-11-22T14:49:01;10.00;;;4.88;;
46036;SDS011;31769;49.304;8.428;2023-11-22T14:52:03;5.97;;;4.85;;
46036;SDS011;31769;49.304;8.428;2023-11-22T14:55:04;10.02;;;5.32;;
46036;SDS011;31769;49.304;8.428;2023-11-22T14:58:05;5.90;;;5.28;;
46036;SDS011;31769;49.304;8.428;2023-11-22T15:01:06;5.72;;;4.57;;
46036;SDS011;31769;49.304;8.428;2023-11-22T15:04:08;8.77;;;5.47;;
46036;SDS011;31769;49.304;8.428;2023-11-22T15:07:10;7.38;;;5.15;;
46036;SDS011;31769;49.304;8.428;2023-11-22T15:10:11;6.20;;;4.95;;
46036;SDS011;31769;49.304;8.428;2023-11-22T15:13:13;20.13;;;10.75;;
46036;SDS011;31769;49.304;8.428;2023-11-22T15:16:15;6.95;;;5.57;;
46036;SDS011;31769;49.304;8.428;2023-11-22T15:19:16;9.43;;;7.72;;
46036;SDS011;31769;49.304;8.428;2023-11-22T15:22:18;7.15;;;5.10;;
46036;SDS011;31769;49.304;8.428;2023-11-22T15:25:19;8.13;;;5.25;;
46036;SDS011;31769;49.304;8.428;2023-11-22T15:28:19;12.25;;;7.78;;
46036;SDS011;31769;49.304;8.428;2023-11-22T15:31:23;12.55;;;9.48;;
46036;SDS011;31769;49.304;8.428;2023-11-22T15:34:23;12.00;;;7.57;;
46036;SDS011;31769;49.304;8.428;2023-11-22T15:37:24;11.68;;;6.05;;
46036;SDS011;31769;49.304;8.428;2023-11-22T15:40:24;10.05;;;7.03;;
46036;SDS011;31769;49.304;8.428;2023-11-22T15:43:25;9.93;;;7.45;;
46036;SDS011;31769;49.304;8.428;2023-11-22T15:46:27;25.05;;;10.98;;
46036;SDS011;31769;49.304;8.428;2023-11-22T15:49:29;18.55;;;10.77;;
46036;SDS011;31769;49.304;8.428;2023-11-22T15:52:29;15.13;;;10.18;;
46036;SDS011;31769;49.304;8.428;2023-11-22T15:55:30;24.85;;;13.43;;
46036;SDS011;31769;49.304;8.428;2023-11-22T15:58:31;28.48;;;16.55;;
46036;SDS011;31769;49.304;8.428;2023-11-22T16:01:32;16.60;;;10.68;;
46036;SDS011;31769;49.304;8.428;2023-11-22T16:04:32;12.30;;;8.05;;
46036;SDS011;31769;49.304;8.428;2023-11-22T16:07:33;9.20;;;6.55;;
46036;SDS011;31769;49.304;8.428;2023-11-22T16:10:34;8.13;;;6.00;;
46036;SDS011;31769;49.304;8.428;2023-11-22T16:13:34;10.65;;;6.00;;
46036;SDS011;31769;49.304;8.428;2023-11-22T16:16:35;10.82;;;5.68;;
46036;SDS011;31769;49.304;8.428;2023-11-22T16:19:36;9.02;;;5.82;;
46036;SDS011;31769;49.304;8.428;2023-11-22T16:22:37;11.68;;;6.68;;
46036;SDS011;31769;49.304;8.428;2023-11-22T16:25:47;10.13;;;6.50;;
46036;SDS011;31769;49.304;8.428;2023-11-22T16:28:49;8.88;;;5.55;;
46036;SDS011;31769;49.304;8.428;2023-11-22T16:31:50;9.45;;;5.72;;
46036;SDS011;31769;49.304;8.428;2023-11-22T16:34:51;8.27;;;6.03;;
46036;SDS011;31769;49.304;8.428;2023-11-22T16:37:51;13.25;;;6.85;;
46036;SDS011;31769;49.304;8.428;2023-11-22T16:40:52;9.00;;;6.38;;
46036;SDS011;31769;49.304;8.428;2023-11-22T16:43:53;11.23;;;6.22;;
46036;SDS011;31769;49.304;8.428;2023-11-22T16:46:54;8.32;;;6.03;;
46036;SDS011;31769;49.304;8.428;2023-11-22T16:49:55;8.52;;;5.65;;
46036;SDS011;31769;49.304;8.428;2023-11-22T16:52:55;12.35;;;6.47;;
46036;SDS011;31769;49.304;8.428;2023-11-22T16:55:56;12.55;;;6.00;;
46036;SDS011;31769;49.304;8.428;2023-11-22T16:58:57;9.80;;;6.70;;
46036;SDS011;31769;49.304;8.428;2023-11-22T17:01:58;9.90;;;6.68;;
46036;SDS011;31769;49.304;8.428;2023-11-22T17:05:02;14.43;;;7.70;;
46036;SDS011;31769;49.304;8.428;2023-11-22T17:08:03;10.50;;;6.28;;
46036;SDS011;31769;49.304;8.428;2023-11-22T17:11:04;9.38;;;6.45;;
46036;SDS011;31769;49.304;8.428;2023-11-22T17:14:04;9.88;;;7.25;;
46036;SDS011;31769;49.304;8.428;2023-11-22T17:17:05;8.93;;;6.68;;
46036;SDS011;31769;49.304;8.428;2023-11-22T17:20:06;10.32;;;6.85;;
46036;SDS011;31769;49.304;8.428;2023-11-22T17:23:07;10.45;;;6.15;;
46036;SDS011;31769;49.304;8.428;2023-11-22T17:26:08;8.80;;;6.90;;
46036;SDS011;31769;49.304;8.428;2023-11-22T17:29:09;11.20;;;6.90;;
46036;SDS011;31769;49.304;8.428;2023-11-22T17:32:10;14.98;;;10.65;;
46036;SDS011;31769;49.304;8.428;2023-11-22T17:35:11;13.02;;;8.63;;
46036;SDS011;31769;49.304;8.428;2023-11-22T17:38:12;13.70;;;8.98;;
46036;SDS011;31769;49.304;8.428;2023-11-22T17:41:13;13.73;;;8.60;;
46036;SDS011;31769;49.304;8.428;2023-11-22T17:44:14;14.80;;;9.98;;
46036;SDS011;31769;49.304;8.428;2023-11-22T17:47:15;23.85;;;13.70;;
46036;SDS011;31769;49.304;8.428;2023-11-22T17:50:16;23.67;;;11.73;;
46036;SDS011;31769;49.304;8.428;2023-11-22T17:53:17;18.08;;;9.95;;
46036;SDS011;31769;49.304;8.428;2023-11-22T17:56:17;19.50;;;11.35;;
46036;SDS011;31769;49.304;8.428;2023-11-22T17:59:18;13.15;;;8.85;;
46036;SDS011;31769;49.304;8.428;2023-11-22T18:02:19;15.02;;;8.75;;
46036;SDS011;31769;49.304;8.428;2023-11-22T18:05:20;12.07;;;8.77;;
46036;SDS011;31769;49.304;8.428;2023-11-22T18:08:25;14.02;;;9.85;;
46036;SDS011;31769;49.304;8.428;2023-11-22T18:11:25;15.40;;;10.88;;
46036;SDS011;31769;49.304;8.428;2023-11-22T18:14:26;22.27;;;17.20;;